KMRB

Eastern Wv Regional / Shepherd Field Airport

Martinsburg, West Virginia, USA
METAR KMRB 130953Z AUTO 01003KT 10SM OVC070 01/M03 A3016 RMK AO2 SLP217 T00111033
Observed Flight Rules
Dec-13 @ 09:53 UTC (an hour ago) Visual Flight Rules
Wind Visibility Clouds
10° at 3 knots 10 miles
  • Overcast at 7,000' AGL
Temperatures Readings
Current 1°C / 34°F
Dewpoint -3°C / 27°F
Humidity 75%
Altimeter 30.16" Hg
Pressure 1021.7 hPa
Elevation 164
METAR KMRB 130953Z AUTO 01003KT 10SM OVC070 01/M03 A3016 RMK AO2 SLP217 T00111033
Observed Flight Rules
Dec-13 @ 09:53 UTC
(an hour ago)
VFR
Wind Visibility
10° at 3 knots 10 miles
Clouds
  • Overcast at 7,000' AGL
Temperature Dewpoint
1°C / 34°F -3°C / 27°F
Humidity Altimeter Pressure
75% 30.16" Hg 1021.7 hPa